Okay Dursun

Chefscout - Antalyaspor
3 Dez 2028
Sonntag
Verarbeitung

Persönlichkeit

Anpassungsfähigkeit (9) Ehrgeiz (12) Kontroverse (18) Loyalität (2) Druck (15) Professionalität (16) Fairness (6) Temperament (18)

Profil

Trainerstil Demokratisch
Lizenz Kontinentale Pro
Entschlossenheit 11
Menschenführung 10
Motivation 9
Disziplin 9
Arbeitszufriedenheit
100%
Ermüdung
0%
Rolle Chefscout
Gehalt 87.9K p/W
Vertrag 14.03.2030

Leistung

Verhalten Gut
Trainingseffektivität
38%
Spielerentwicklung
30%
Verletzungsprävention
30%
Taktische Umsetzung
20%

Letzte Ereignisse

Nahm an einer Scouting-Besprechung teil jetzt
Empfahl ein Transferziel jetzt
Empfahl ein Transferziel jetzt
Empfahl ein Transferziel jetzt
Empfahl ein Transferziel jetzt
Empfahl ein Transferziel jetzt
Empfahl ein Transferziel jetzt
Nahm an einer Scouting-Besprechung teil jetzt

Aktuell beobachtet

201
Spieler Verein Status Fähigkeit Vertrauen Beobachtet Zuletzt beobachtet Letzte Stimme
Andrey Ivlev Nizhniy Novgorod Aktiv 120 / 116 40% 2 04.07.2028 -
Simone Suppa Virtus Verona Aktiv 86 / 93 40% 1 04.07.2028 -
Giovanni Leoni Lincoln City Aktiv 136 / 141 40% 1 04.07.2028 -
Siyabonga Mabena Bidvest Wits Aktiv 113 / 137 40% 1 26.06.2028 -
Rémi Himbert AC Ajaccio Aktiv 119 / 133 40% 1 26.06.2028 -
Fletcher Boyd Accrington Stanley Aktiv 115 / 114 40% 1 14.06.2028 -
Alessio Raballo Carrarese Aktiv 85 / 91 40% 1 14.06.2028 -
Francisco Souza Silva Feirense Aktiv 118 / 117 40% 1 14.06.2028 -
Ryunosuke Sato Eibar Aktiv 126 / 130 40% 1 08.06.2028 -
Rio Ngumoha Plymouth Argyle Aktiv 148 / 147 40% 1 08.06.2028 -
Luca Williams-Barnett Walsall Aktiv 119 / 136 40% 1 05.06.2028 -
Ryan McAidoo Oldham Athletic Aktiv 133 / 123 40% 1 05.06.2028 -
Musa Danjuma Umraniyespor Aktiv 101 / 105 40% 2 27.04.2028 -
Andrija Bulatović Chamois Niortais Aktiv 139 / 128 40% 3 27.04.2028 -
Jorge Salinas Racing Santander Aktiv 141 / 130 40% 4 27.04.2028 -
Christos Mouzakitis Hull City Aktiv 129 / 134 40% 6 26.04.2028 -
Federico Matarán Giana Erminio Aktiv 113 / 120 40% 1 26.04.2028 -
Tyler Fletcher Rotherham United Aktiv 113 / 108 40% 3 24.04.2028 -
Martim Cunha Porto Aktiv 112 / 112 40% 3 24.04.2028 -
Pape Diong Westerlo Aktiv 117 / 135 40% 2 21.04.2028 -
Lucas Høgsberg RC Strasbourg Aktiv 152 / 136 40% 1 20.04.2028 -
Héctor Fort Real Sociedad Aktiv 149 / 144 40% 2 18.04.2028 -
Ayden Heaven Portsmouth Aktiv 154 / 144 40% 2 18.04.2028 -
Lamine Bèye Portimonense Aktiv 101 / 111 40% 2 17.04.2028 -
Morteza Torabi Malavan Aktiv 99 / 113 40% 2 17.04.2028 -
Honest Ahanor Atalanta Aktiv 125 / 150 40% 3 17.04.2028 -
Jack Wint Sibenik Aktiv 87 / 104 40% 2 06.04.2028 -
Lucas Wolfert Racing Club Aktiv 96 / 104 40% 1 06.04.2028 -
Samuel Atehortúa Deportivo Pereira Aktiv 93 / 87 40% 1 05.04.2028 -
Diego Mascardi Juventus Aktiv 126 / 143 40% 2 04.04.2028 -
Seb Stacey Crawley Town Aktiv 99 / 100 40% 1 04.04.2028 -
Fernando Bravo Almería Aktiv 96 / 119 40% 1 04.04.2028 -
Kiani Inge Groningen Aktiv 117 / 124 40% 1 03.04.2028 -
Robert Cook Accrington Stanley Aktiv 103 / 107 40% 1 31.03.2028 -
Máximo Núñez Los Andes Aktiv 103 / 112 40% 1 31.03.2028 -
Galo Avendaño Aldosivi Aktiv 84 / 99 40% 1 31.03.2028 -
Felipe Igón Racing Club Aktiv 106 / 104 40% 1 30.03.2028 -
Franco Yennerich Talleres Aktiv 90 / 94 40% 1 30.03.2028 -
Matias Siltanen Malmo FF Aktiv 128 / 127 40% 6 25.03.2028 -
Olivier Leroux Mouscron Aktiv 104 / 110 40% 3 24.03.2028 -
Josh Nichols Oldham Athletic Aktiv 108 / 123 40% 2 24.03.2028 -
Konta Ismaily Aktiv 102 / 104 40% 1 20.03.2028 -
Josh Acheampong Everton Aktiv 146 / 138 40% 2 19.03.2028 -
Izan Merino Málaga Aktiv 121 / 139 40% 1 19.03.2028 -
Jan Bürger Northampton Town Aktiv 109 / 118 40% 1 19.03.2028 -
Bernardo Lima Porto Aktiv 117 / 113 40% 2 18.03.2028 -
Matvey Bardachev Zenit Aktiv 104 / 119 40% 1 18.03.2028 -
Abubakar Adams Aduana Stars Aktiv 76 / 96 40% 2 17.03.2028 -
Thijs Kraaijeveld USM Alger Aktiv 120 / 120 40% 1 16.03.2028 -
Dmytro Strilchuk Podillia Aktiv 74 / 88 40% 2 15.03.2028 -
Daniel Banjaqui Benfica Aktiv 127 / 132 40% 1 15.03.2028 -
Milad Nekounam Gostaresh Foulad Aktiv 80 / 89 40% 1 14.03.2028 -
Riquelme Thompson-Jones Accrington Stanley Aktiv 109 / 113 40% 1 13.03.2028 -
Andrey Tsitsilin Baltika Aktiv 70 / 80 40% 1 13.03.2028 -
Thiago Sabella Banfield Aktiv 90 / 100 40% 1 13.03.2028 -
Ignacio Roldán Lanús Aktiv 93 / 102 40% 1 13.03.2028 -
Nicolò Moranduzzo Renate Aktiv 94 / 107 40% 1 06.03.2028 -
Arda Ünyay Galatasaray Aktiv 102 / 118 65% 1 24.01.2028 Befürworten
Facundo Torres Millonarios Aktiv 134 / 134 67% 1 01.01.2028 Befürworten
Toni Fruk Talleres Aktiv 132 / 133 66% 1 01.01.2028 Befürworten
Jeremías Merlo Gimnasia La Plata Aktiv 128 / 129 40% 2 31.12.2027 -
Seb Ferdinand Rotherham United Aktiv 127 / 126 40% 1 31.12.2027 -
Devrim Şahin Dukla Prague Aktiv 106 / 109 40% 1 31.12.2027 -
Kabiru Abdullahi Barau Aktiv 94 / 93 40% 1 08.12.2027 -
Chimobi Igwilo Rangers International Aktiv 82 / 91 40% 3 21.11.2027 -
Francisco Triver River Plate Aktiv 86 / 94 40% 2 21.11.2027 -
Christ Wawa Gefle Aktiv 95 / 112 40% 3 19.11.2027 -
Mateo Silvetti Seattle Sounders Aktiv 123 / 126 40% 3 19.11.2027 -
Eli Junior Kroupi Bournemouth Aktiv 156 / 143 40% 1 19.11.2027 -
Matías Arias Vélez Aktiv 116 / 124 40% 2 18.11.2027 -
Jayden Danns Bradford City Aktiv 144 / 148 40% 1 18.11.2027 -
Colin Guske Orlando City Aktiv 96 / 105 40% 1 18.11.2027 -
Victor Hernandez Santa Fe Aktiv 127 / 130 40% 7 17.11.2027 -
Hassan Beja AFC Leopards Aktiv 101 / 87 40% 5 15.11.2027 -
Giovanni Baroni Talleres Aktiv 110 / 118 40% 3 15.11.2027 -
Mateo Peralta Danubio Aktiv 114 / 120 40% 2 15.11.2027 -
Mustapha Umar Kano Pillars Aktiv 97 / 88 40% 4 12.11.2027 -
Pedro Baltika Aktiv 131 / 145 40% 2 12.11.2027 -
Nicolás Ferreira Artigas Aktiv 79 / 87 40% 1 12.11.2027 -
Emmanuel Ndubueze Shooting Stars Aktiv 95 / 92 40% 3 11.11.2027 -
Valentino Acuña Newell's Old Boys Aktiv 113 / 118 40% 3 10.11.2027 -
Nicolás Barros Schelotto Gimnasia La Plata Aktiv 121 / 123 40% 5 08.11.2027 -
Maren Kefas Plateau United Aktiv 89 / 95 40% 6 06.11.2027 -
Idris Ajiya Nasarawa United Aktiv 94 / 89 40% 2 06.11.2027 -
Tiago Pucciarelli IF Elfsborg Aktiv 103 / 101 40% 2 05.11.2027 -
Nupe Godstime Bayelsa United Aktiv 89 / 95 40% 2 02.11.2027 -
Ben Gannon Doak Charlton Athletic Aktiv 143 / 159 40% 1 20.10.2027 -
Alex Verón Vélez Aktiv 111 / 127 40% 3 17.10.2027 -
Albert Aleksanjan IFK Norrkoping Aktiv 110 / 112 40% 1 17.10.2027 -
Alex Amaefula Kun Khalifat Aktiv 75 / 87 40% 1 16.10.2027 -
Francisco Marchant Colo-Colo Aktiv 95 / 105 40% 1 13.10.2027 -
Julián Bragado Morón Aktiv 81 / 87 40% 1 13.10.2027 -
Musa Malik Ikorodu City Aktiv 81 / 90 40% 1 12.10.2027 -
Wisdom Udom Bendel Insurance Aktiv 94 / 93 40% 2 11.10.2027 -
Juan Rodríguez Cerro Largo Aktiv 98 / 96 40% 1 11.10.2027 -
Gabriel Lopes San Marcos de Arica Aktiv 96 / 104 40% 2 09.10.2027 -
Joel Ezra Enyimba Aktiv 88 / 105 40% 2 08.10.2027 -
Lucas Camejo River Plate Aktiv 83 / 91 40% 2 08.10.2027 -
Lucas Duré Montevideo City Torque Aktiv 103 / 100 40% 1 06.10.2027 -
Abdulrahman Hamisu Niger Tornadoes Aktiv 94 / 91 40% 1 04.10.2027 -
Luis Yanes Real Cartagena Aktiv 97 / 104 40% 1 03.10.2027 -
Abubakar Garba Nasarawa United Aktiv 94 / 96 40% 7 02.10.2027 -
Didier Dawson Envigado Aktiv 112 / 107 40% 2 29.09.2027 -
Esteban de Lima Tacuarembo Aktiv 87 / 99 40% 2 21.09.2027 -
Kwandile Gumemde US Bougouni Aktiv 84 / 92 40% 1 07.09.2027 -
Gabriele Bertolini Vicenza Aktiv 117 / 105 40% 1 16.08.2027 -
Mbekezeli Mbokazi Chicago Fire Aktiv 116 / 121 40% 1 27.07.2027 -
João Mendes Kayserispor Aktiv 124 / 117 62% 1 12.07.2027 Befürworten
Issa Yusuf Shooting Stars Aktiv 94 / 93 40% 1 05.07.2027 -
Pedro de la Vega Columbus Crew Aktiv 133 / 134 66% 1 01.06.2027 Befürworten
Chari Giwa US Bougouni Aktiv 72 / 80 40% 1 31.05.2027 -
Milan van Ewijk Coventry City Aktiv 145 / 133 40% 2 30.05.2027 -
Ali Ahmed Norwich City Aktiv 128 / 116 40% 3 30.05.2027 -
Miguel Figueiredo Benfica Aktiv 98 / 119 40% 1 30.05.2027 -
Tommaso Cecotti Carpi Aktiv 96 / 96 40% 1 29.05.2027 -
Alex Robertson Cardiff City Aktiv 110 / 127 40% 2 26.05.2027 -
Max Johnston Derby County Aktiv 141 / 133 40% 2 24.05.2027 -
Jack Rudoni Coventry City Aktiv 137 / 138 40% 2 23.05.2027 -
Chemsdine Talbi Sunderland Aktiv 132 / 146 40% 4 22.05.2027 -
Mohamed-Ali Cho Hull City Aktiv 125 / 132 40% 4 21.05.2027 -
Marcel Ruiz Crystal Palace Aktiv 146 / 143 40% 2 20.05.2027 -
Derensili Sanches Fernandes Huddersfield Town Aktiv 133 / 123 40% 1 19.05.2027 -
Alex Lowry Wycombe Wanderers Aktiv 110 / 114 40% 1 18.05.2027 -
Kwadwo Baah Watford Aktiv 128 / 124 40% 3 17.05.2027 -
Max Bird Birmingham Aktiv 126 / 123 40% 2 15.05.2027 -
Bade Aluko Leicester City Aktiv 126 / 129 40% 1 13.05.2027 -
Rodrigo Gomes Wolverhampton Aktiv 142 / 139 40% 3 11.05.2027 -
Dennis Cirkin Queens Park Rangers Aktiv 142 / 119 40% 1 11.05.2027 -
Lucas Bergvall Tottenham Aktiv 158 / 144 40% 1 11.05.2027 -
Ilyas Ansah Hull City Aktiv 119 / 129 40% 1 08.05.2027 -
Isaiah Jones Luton Town Aktiv 117 / 132 40% 3 07.05.2027 -
Welington Southampton Aktiv 128 / 125 40% 2 05.05.2027 -
Samuele di Benedetto Twente Aktiv 121 / 117 40% 1 04.05.2027 -
Cian Ashford Cardiff City Aktiv 119 / 124 40% 5 01.05.2027 -
Enzo Le Fée Sunderland Aktiv 148 / 143 40% 1 29.04.2027 -
Nicolò Zaniolo Udinese Aktiv 158 / 144 40% 2 27.04.2027 -
Joe Gelhardt Hull City Aktiv 144 / 125 40% 3 26.04.2027 -
Florentino Luís Ipswich Town Aktiv 139 / 136 40% 3 26.04.2027 -
Oswin Appollis Orlando Pirates Aktiv 130 / 120 40% 4 23.04.2027 -
Rivaldo Mkhize Black Aces Aktiv 83 / 78 40% 1 19.04.2027 -
Ahmed Zaki Masr El Makasa Aktiv 63 / 73 40% 1 19.04.2027 -
Sidny Lopes Cabral Trabzonspor Aktiv 133 / 132 40% 2 16.04.2027 -
Andre Brooks Sheffield United Aktiv 124 / 119 40% 3 15.04.2027 -
Scott Twine Bristol City Aktiv 120 / 128 40% 4 13.04.2027 -
Charlie Gray Fleetwood Town Aktiv 103 / 95 40% 1 11.04.2027 -
Tyrese Campbell Sheffield United Aktiv 126 / 129 40% 1 11.04.2027 -
Joel Bagan Cardiff City Aktiv 118 / 120 40% 1 09.04.2027 -
Juan Bezerra Zamalek Aktiv 107 / 121 40% 2 07.04.2027 -
David Ozoh Derby County Aktiv 134 / 122 40% 2 05.04.2027 -
Samuel Edozie Southampton Aktiv 135 / 129 40% 1 31.03.2027 -
Yehor Yarmoliuk Brentford Aktiv 137 / 158 40% 1 26.03.2027 -
Tahith Chong Sheffield United Aktiv 108 / 116 40% 1 23.03.2027 -
Justo Giani Umraniyespor Aktiv 121 / 120 40% 2 22.03.2027 -
Bobby Clark Derby County Aktiv 137 / 116 40% 2 21.03.2027 -
Matt O'Riley Brighton Aktiv 135 / 148 40% 2 18.03.2027 -
Oston O'runov Persepolis Aktiv 136 / 122 40% 3 17.03.2027 -
Amine Adli Bournemouth Aktiv 134 / 133 40% 1 17.03.2027 -
Mohammad Mehdi Mohebi Persepolis Aktiv 107 / 116 40% 2 15.03.2027 -
Festy Ebosele Basaksehir Aktiv 121 / 124 40% 1 14.03.2027 -
Bongani Zungu Ajax Cape Town Aktiv 124 / 118 40% 1 10.03.2027 -
Wilson Isidor Sunderland Aktiv 131 / 135 40% 1 08.03.2027 -
Alex Scott Bournemouth Aktiv 153 / 150 40% 2 28.02.2027 -
Mehdi Hashemnejad Tractor Aktiv 107 / 112 40% 1 18.02.2027 -
Nazar Voloshyn Dynamo Kyiv Aktiv 115 / 119 40% 1 08.02.2027 -
Peter Federico Gornik Zabrze Aktiv 134 / 116 40% 1 30.01.2027 -
Bradley Zwane SuperSport United Aktiv 104 / 118 40% 1 25.01.2027 -
Finn Azaz Southampton Aktiv 141 / 129 40% 1 13.01.2027 -
Serginho Al Wasl Aktiv 138 / 128 40% 1 11.01.2027 -
Sampson Dweh Mallorca Aktiv 133 / 134 66% 1 01.01.2027 Befürworten
Oliver Skipp Leicester City Aktiv 143 / 126 40% 1 01.01.2027 -
Ryan Sessegnon Fulham Aktiv 147 / 140 40% 1 01.01.2027 -
Miloš Jovičić Zabbar St. Patrick Aktiv 103 / 96 40% 4 29.12.2026 -
Patrick Agyemang Derby County Aktiv 128 / 123 40% 1 28.12.2026 -
Naledi Hlongwane Wa All Stars Aktiv 95 / 94 40% 1 26.12.2026 -
Víctor Guzmán Sporting CP Aktiv 97 / 91 40% 1 24.12.2026 -
Rocco Vata Watford Aktiv 125 / 135 40% 4 23.12.2026 -
Mikel Gogorza Brondby Aktiv 123 / 121 40% 1 21.12.2026 -
Marko Brkić NK Krka Aktiv 101 / 92 40% 1 20.12.2026 -
Ammar Ramadan DAC Dunajska Streda Aktiv 113 / 132 40% 2 18.12.2026 -
Eddie Nketiah Crystal Palace Aktiv 137 / 146 40% 1 18.12.2026 -
Younes El Bahraoui Al-Taawoun Aktiv 96 / 118 40% 1 16.12.2026 -
Ryan Oné Sheffield United Aktiv 121 / 117 40% 1 16.12.2026 -
Leo Castledine Middlesbrough Aktiv 112 / 133 40% 2 13.12.2026 -
Luke Baartman Ajax Cape Town Aktiv 108 / 119 40% 1 12.12.2026 -
Bariş Kalaycı Fatih Karagumruk Aktiv 97 / 102 40% 1 07.12.2026 Mehr Infos nötig
Lwanda Mbanjwa Platinum Stars Aktiv 102 / 107 40% 1 04.12.2026 -
Mateus Mané Burnley Aktiv 121 / 128 40% 1 02.12.2026 -
Olívio Tomé Benfica Aktiv 118 / 101 40% 1 09.11.2026 -
Robert FC Copenhagen Aktiv 126 / 139 40% 2 04.11.2026 -
Gianluca Prestianni Benfica Aktiv 130 / 130 40% 1 02.11.2026 -
Kirill Glebov CSKA Moscow Aktiv 113 / 128 40% 3 01.11.2026 -
Matteo Pérez Vinlöf Dinamo Zagreb Aktiv 122 / 140 40% 1 29.10.2026 -
Veljko Radosavljević Cukaricki Aktiv 108 / 106 40% 1 27.10.2026 -
Agustín Medina Lanús Aktiv 114 / 118 40% 1 27.10.2026 -
Santiago Segovia Rosario Central Aktiv 104 / 121 40% 1 25.10.2026 -
Nino Marcelli Slovan Bratislava Aktiv 112 / 121 40% 1 22.10.2026 -
Martin Gjorgievski Zbrojovka Brno Aktiv 118 / 115 40% 1 19.10.2026 -
Tomás Aranda Boca Juniors Aktiv 109 / 123 40% 1 18.10.2026 -
Daniel Awuni Aduana Stars Aktiv 89 / 102 40% 1 16.10.2026 -
Paulo Díaz Atlanta United FC Aktiv 125 / 142 40% 1 04.08.2026 -
Mikkel Desler Austin FC Aktiv 131 / 125 40% 1 04.08.2026 -